sensor_id;sensor_type;location;lat;lon;timestamp;temperature;humidity
33793;DHT22;20105;48.764;9.178;2022-11-14T00:02:11;3.50;99.90
33793;DHT22;20105;48.764;9.178;2022-11-14T00:04:36;3.50;99.90
33793;DHT22;20105;48.764;9.178;2022-11-14T00:07:02;3.40;99.90
33793;DHT22;20105;48.764;9.178;2022-11-14T00:09:28;3.40;99.90
33793;DHT22;20105;48.764;9.178;2022-11-14T00:11:54;3.40;99.90
33793;DHT22;20105;48.764;9.178;2022-11-14T00:14:21;3.40;99.90
33793;DHT22;20105;48.764;9.178;2022-11-14T00:16:47;3.40;99.90
33793;DHT22;20105;48.764;9.178;2022-11-14T00:19:12;3.30;99.90
33793;DHT22;20105;48.764;9.178;2022-11-14T00:21:38;3.30;99.90
33793;DHT22;20105;48.764;9.178;2022-11-14T00:24:04;3.20;99.90
33793;DHT22;20105;48.764;9.178;2022-11-14T00:26:30;3.20;99.90
33793;DHT22;20105;48.764;9.178;2022-11-14T00:28:56;3.20;99.90
33793;DHT22;20105;48.764;9.178;2022-11-14T00:31:24;3.20;99.90
33793;DHT22;20105;48.764;9.178;2022-11-14T00:33:50;3.20;99.90
33793;DHT22;20105;48.764;9.178;2022-11-14T00:36:15;3.20;99.90
33793;DHT22;20105;48.764;9.178;2022-11-14T00:38:41;3.20;99.90
33793;DHT22;20105;48.764;9.178;2022-11-14T00:41:08;3.20;99.90
33793;DHT22;20105;48.764;9.178;2022-11-14T00:43:33;3.20;99.90
33793;DHT22;20105;48.764;9.178;2022-11-14T00:45:59;3.20;99.90
33793;DHT22;20105;48.764;9.178;2022-11-14T00:48:24;3.20;99.90
33793;DHT22;20105;48.764;9.178;2022-11-14T00:50:50;3.20;99.90
33793;DHT22;20105;48.764;9.178;2022-11-14T00:53:15;3.20;99.90
33793;DHT22;20105;48.764;9.178;2022-11-14T00:55:42;3.10;99.90
33793;DHT22;20105;48.764;9.178;2022-11-14T00:58:07;3.20;99.90
33793;DHT22;20105;48.764;9.178;2022-11-14T01:00:35;3.10;99.90
33793;DHT22;20105;48.764;9.178;2022-11-14T01:03:00;3.10;99.90
33793;DHT22;20105;48.764;9.178;2022-11-14T01:05:26;3.00;99.90
33793;DHT22;20105;48.764;9.178;2022-11-14T01:07:52;3.00;99.90
33793;DHT22;20105;48.764;9.178;2022-11-14T01:10:18;3.00;99.90
33793;DHT22;20105;48.764;9.178;2022-11-14T01:12:43;2.90;99.90
33793;DHT22;20105;48.764;9.178;2022-11-14T01:15:09;2.90;99.90
33793;DHT22;20105;48.764;9.178;2022-11-14T01:17:35;2.90;99.90
33793;DHT22;20105;48.764;9.178;2022-11-14T01:20:01;2.90;99.90
33793;DHT22;20105;48.764;9.178;2022-11-14T01:22:28;2.90;99.90
33793;DHT22;20105;48.764;9.178;2022-11-14T01:24:54;2.90;99.90
33793;DHT22;20105;48.764;9.178;2022-11-14T01:27:28;2.90;99.90
33793;DHT22;20105;48.764;9.178;2022-11-14T01:29:54;2.90;99.90
33793;DHT22;20105;48.764;9.178;2022-11-14T01:32:20;2.80;99.90
33793;DHT22;20105;48.764;9.178;2022-11-14T01:34:46;2.80;99.90
33793;DHT22;20105;48.764;9.178;2022-11-14T01:37:12;2.80;99.90
33793;DHT22;20105;48.764;9.178;2022-11-14T01:39:37;2.80;99.90
33793;DHT22;20105;48.764;9.178;2022-11-14T01:42:03;2.80;99.90
33793;DHT22;20105;48.764;9.178;2022-11-14T01:47:10;2.80;99.90
33793;DHT22;20105;48.764;9.178;2022-11-14T01:49:42;2.80;99.90
33793;DHT22;20105;48.764;9.178;2022-11-14T01:52:27;2.80;99.90
33793;DHT22;20105;48.764;9.178;2022-11-14T01:54:59;2.80;99.90
33793;DHT22;20105;48.764;9.178;2022-11-14T01:57:43;2.80;99.90
33793;DHT22;20105;48.764;9.178;2022-11-14T02:00:11;2.70;99.90
33793;DHT22;20105;48.764;9.178;2022-11-14T02:02:37;2.80;99.90
33793;DHT22;20105;48.764;9.178;2022-11-14T02:05:06;2.80;99.90
33793;DHT22;20105;48.764;9.178;2022-11-14T02:07:36;2.80;99.90
33793;DHT22;20105;48.764;9.178;2022-11-14T02:10:09;2.90;99.90
33793;DHT22;20105;48.764;9.178;2022-11-14T02:12:36;3.00;99.90
33793;DHT22;20105;48.764;9.178;2022-11-14T02:15:02;3.00;99.90
33793;DHT22;20105;48.764;9.178;2022-11-14T02:17:28;3.10;99.90
33793;DHT22;20105;48.764;9.178;2022-11-14T02:20:17;3.30;99.90
33793;DHT22;20105;48.764;9.178;2022-11-14T02:22:43;3.40;99.90
33793;DHT22;20105;48.764;9.178;2022-11-14T02:25:12;3.40;99.90
33793;DHT22;20105;48.764;9.178;2022-11-14T02:27:39;3.40;99.90
33793;DHT22;20105;48.764;9.178;2022-11-14T02:30:13;3.40;99.90
33793;DHT22;20105;48.764;9.178;2022-11-14T02:32:41;3.40;99.90
33793;DHT22;20105;48.764;9.178;2022-11-14T02:35:07;3.40;99.90
33793;DHT22;20105;48.764;9.178;2022-11-14T02:37:34;3.30;99.90
33793;DHT22;20105;48.764;9.178;2022-11-14T02:40:00;3.20;99.90
33793;DHT22;20105;48.764;9.178;2022-11-14T02:42:25;3.10;99.90
33793;DHT22;20105;48.764;9.178;2022-11-14T02:44:51;3.10;99.90
33793;DHT22;20105;48.764;9.178;2022-11-14T02:47:16;3.00;99.90
33793;DHT22;20105;48.764;9.178;2022-11-14T02:49:44;3.00;99.90
33793;DHT22;20105;48.764;9.178;2022-11-14T02:52:11;3.00;99.90
33793;DHT22;20105;48.764;9.178;2022-11-14T02:54:36;3.00;99.90
33793;DHT22;20105;48.764;9.178;2022-11-14T02:57:05;3.10;99.90
33793;DHT22;20105;48.764;9.178;2022-11-14T02:59:30;3.20;99.90
33793;DHT22;20105;48.764;9.178;2022-11-14T03:01:56;3.10;99.90
33793;DHT22;20105;48.764;9.178;2022-11-14T03:04:21;3.10;99.90
33793;DHT22;20105;48.764;9.178;2022-11-14T03:06:48;3.10;99.90
33793;DHT22;20105;48.764;9.178;2022-11-14T03:09:14;3.20;99.90
33793;DHT22;20105;48.764;9.178;2022-11-14T03:11:41;3.20;99.90
33793;DHT22;20105;48.764;9.178;2022-11-14T03:14:07;3.30;99.90
33793;DHT22;20105;48.764;9.178;2022-11-14T03:16:32;3.30;99.90
33793;DHT22;20105;48.764;9.178;2022-11-14T03:18:58;3.30;99.90
33793;DHT22;20105;48.764;9.178;2022-11-14T03:21:23;3.30;99.90
33793;DHT22;20105;48.764;9.178;2022-11-14T03:23:49;3.30;99.90
33793;DHT22;20105;48.764;9.178;2022-11-14T03:26:15;3.20;99.90
33793;DHT22;20105;48.764;9.178;2022-11-14T03:28:41;3.20;99.90
33793;DHT22;20105;48.764;9.178;2022-11-14T03:31:09;3.10;99.90
33793;DHT22;20105;48.764;9.178;2022-11-14T03:33:36;3.00;99.90
33793;DHT22;20105;48.764;9.178;2022-11-14T03:36:02;3.00;99.90
33793;DHT22;20105;48.764;9.178;2022-11-14T03:38:28;2.90;99.90
33793;DHT22;20105;48.764;9.178;2022-11-14T03:40:56;2.90;99.90
33793;DHT22;20105;48.764;9.178;2022-11-14T03:43:22;2.80;99.90
33793;DHT22;20105;48.764;9.178;2022-11-14T03:45:47;2.80;99.90
33793;DHT22;20105;48.764;9.178;2022-11-14T03:48:14;2.80;99.90
33793;DHT22;20105;48.764;9.178;2022-11-14T03:50:43;2.80;99.90
33793;DHT22;20105;48.764;9.178;2022-11-14T03:53:09;2.80;99.90
33793;DHT22;20105;48.764;9.178;2022-11-14T03:55:36;2.80;99.90
33793;DHT22;20105;48.764;9.178;2022-11-14T03:58:02;2.80;99.90
33793;DHT22;20105;48.764;9.178;2022-11-14T04:00:28;2.80;99.90
33793;DHT22;20105;48.764;9.178;2022-11-14T04:02:54;2.80;99.90
33793;DHT22;20105;48.764;9.178;2022-11-14T04:05:21;2.90;99.90
33793;DHT22;20105;48.764;9.178;2022-11-14T04:07:46;3.00;99.90
33793;DHT22;20105;48.764;9.178;2022-11-14T04:10:12;2.90;99.90
33793;DHT22;20105;48.764;9.178;2022-11-14T04:12:37;2.80;99.90
33793;DHT22;20105;48.764;9.178;2022-11-14T04:15:03;2.90;99.90
33793;DHT22;20105;48.764;9.178;2022-11-14T04:17:29;2.90;99.90
33793;DHT22;20105;48.764;9.178;2022-11-14T04:19:55;2.90;99.90
33793;DHT22;20105;48.764;9.178;2022-11-14T04:22:21;2.90;99.90
33793;DHT22;20105;48.764;9.178;2022-11-14T04:24:46;3.00;99.90
33793;DHT22;20105;48.764;9.178;2022-11-14T04:27:12;3.00;99.90
33793;DHT22;20105;48.764;9.178;2022-11-14T04:29:37;3.00;99.90
33793;DHT22;20105;48.764;9.178;2022-11-14T04:32:09;3.00;99.90
33793;DHT22;20105;48.764;9.178;2022-11-14T04:34:34;3.00;99.90
33793;DHT22;20105;48.764;9.178;2022-11-14T04:37:00;3.00;99.90
33793;DHT22;20105;48.764;9.178;2022-11-14T04:39:26;3.00;99.90
33793;DHT22;20105;48.764;9.178;2022-11-14T04:41:51;3.10;99.90
33793;DHT22;20105;48.764;9.178;2022-11-14T04:44:17;3.10;99.90
33793;DHT22;20105;48.764;9.178;2022-11-14T04:46:42;3.20;99.90
33793;DHT22;20105;48.764;9.178;2022-11-14T04:49:08;3.30;99.90
33793;DHT22;20105;48.764;9.178;2022-11-14T04:51:33;3.20;99.90
33793;DHT22;20105;48.764;9.178;2022-11-14T04:53:59;3.30;99.90
33793;DHT22;20105;48.764;9.178;2022-11-14T04:56:24;3.30;99.90
33793;DHT22;20105;48.764;9.178;2022-11-14T04:58:50;3.40;99.90
33793;DHT22;20105;48.764;9.178;2022-11-14T05:01:16;3.30;99.90
33793;DHT22;20105;48.764;9.178;2022-11-14T05:03:41;3.30;99.90
33793;DHT22;20105;48.764;9.178;2022-11-14T05:06:07;3.30;99.90
33793;DHT22;20105;48.764;9.178;2022-11-14T05:08:33;3.30;99.90
33793;DHT22;20105;48.764;9.178;2022-11-14T05:10:58;3.30;99.90
33793;DHT22;20105;48.764;9.178;2022-11-14T05:13:24;3.40;99.90
33793;DHT22;20105;48.764;9.178;2022-11-14T05:15:50;3.40;99.90
33793;DHT22;20105;48.764;9.178;2022-11-14T05:18:15;3.40;99.90
33793;DHT22;20105;48.764;9.178;2022-11-14T05:20:41;3.40;99.90
33793;DHT22;20105;48.764;9.178;2022-11-14T05:23:10;3.40;99.90
33793;DHT22;20105;48.764;9.178;2022-11-14T05:25:40;3.40;99.90
33793;DHT22;20105;48.764;9.178;2022-11-14T05:28:06;3.40;99.90
33793;DHT22;20105;48.764;9.178;2022-11-14T05:30:31;3.40;99.90
33793;DHT22;20105;48.764;9.178;2022-11-14T05:32:57;3.30;99.90
33793;DHT22;20105;48.764;9.178;2022-11-14T05:35:23;3.30;99.90
33793;DHT22;20105;48.764;9.178;2022-11-14T05:37:48;3.30;99.90
33793;DHT22;20105;48.764;9.178;2022-11-14T05:40:14;3.30;99.90
33793;DHT22;20105;48.764;9.178;2022-11-14T05:42:41;3.40;99.90
33793;DHT22;20105;48.764;9.178;2022-11-14T05:45:07;3.30;99.90
33793;DHT22;20105;48.764;9.178;2022-11-14T05:47:34;3.40;99.90
33793;DHT22;20105;48.764;9.178;2022-11-14T05:50:01;3.40;99.90
33793;DHT22;20105;48.764;9.178;2022-11-14T05:52:27;3.40;99.90
33793;DHT22;20105;48.764;9.178;2022-11-14T05:54:53;3.40;99.90
33793;DHT22;20105;48.764;9.178;2022-11-14T05:57:19;3.40;99.90
33793;DHT22;20105;48.764;9.178;2022-11-14T05:59:44;3.30;99.90
33793;DHT22;20105;48.764;9.178;2022-11-14T06:02:10;3.40;99.90
33793;DHT22;20105;48.764;9.178;2022-11-14T06:04:35;3.40;99.90
33793;DHT22;20105;48.764;9.178;2022-11-14T06:07:01;3.40;99.90
33793;DHT22;20105;48.764;9.178;2022-11-14T06:09:27;3.40;99.90
33793;DHT22;20105;48.764;9.178;2022-11-14T06:11:52;3.50;99.90
33793;DHT22;20105;48.764;9.178;2022-11-14T06:14:18;3.50;99.90
33793;DHT22;20105;48.764;9.178;2022-11-14T06:16:44;3.60;99.90
33793;DHT22;20105;48.764;9.178;2022-11-14T06:19:09;3.60;99.90
33793;DHT22;20105;48.764;9.178;2022-11-14T06:21:35;3.70;99.90
33793;DHT22;20105;48.764;9.178;2022-11-14T06:24:00;3.70;99.90
33793;DHT22;20105;48.764;9.178;2022-11-14T06:26:28;3.80;99.90
33793;DHT22;20105;48.764;9.178;2022-11-14T06:28:54;3.80;99.90
33793;DHT22;20105;48.764;9.178;2022-11-14T06:31:21;3.90;99.90
33793;DHT22;20105;48.764;9.178;2022-11-14T06:33:47;3.90;99.90
33793;DHT22;20105;48.764;9.178;2022-11-14T06:36:12;4.10;99.90
33793;DHT22;20105;48.764;9.178;2022-11-14T06:38:39;4.10;99.90
33793;DHT22;20105;48.764;9.178;2022-11-14T06:41:12;4.20;99.90
33793;DHT22;20105;48.764;9.178;2022-11-14T06:43:39;4.20;99.90
33793;DHT22;20105;48.764;9.178;2022-11-14T06:46:07;4.50;99.90
33793;DHT22;20105;48.764;9.178;2022-11-14T06:48:34;4.70;99.90
33793;DHT22;20105;48.764;9.178;2022-11-14T06:51:01;4.90;99.90
33793;DHT22;20105;48.764;9.178;2022-11-14T06:53:29;5.10;99.90
33793;DHT22;20105;48.764;9.178;2022-11-14T06:55:56;5.20;99.90
33793;DHT22;20105;48.764;9.178;2022-11-14T06:58:27;5.30;99.90
33793;DHT22;20105;48.764;9.178;2022-11-14T07:00:53;5.30;99.90
33793;DHT22;20105;48.764;9.178;2022-11-14T07:03:19;5.40;99.90
33793;DHT22;20105;48.764;9.178;2022-11-14T07:05:45;5.50;99.90
33793;DHT22;20105;48.764;9.178;2022-11-14T07:08:11;5.40;99.90
33793;DHT22;20105;48.764;9.178;2022-11-14T07:10:37;5.40;99.90
33793;DHT22;20105;48.764;9.178;2022-11-14T07:13:03;5.40;99.90
33793;DHT22;20105;48.764;9.178;2022-11-14T07:15:28;5.50;99.90
33793;DHT22;20105;48.764;9.178;2022-11-14T07:17:54;5.50;99.90
33793;DHT22;20105;48.764;9.178;2022-11-14T07:20:19;5.60;99.90
33793;DHT22;20105;48.764;9.178;2022-11-14T07:22:46;5.70;99.90
33793;DHT22;20105;48.764;9.178;2022-11-14T07:25:12;5.80;99.90
33793;DHT22;20105;48.764;9.178;2022-11-14T07:27:38;5.80;99.90
33793;DHT22;20105;48.764;9.178;2022-11-14T07:30:04;5.80;99.90
33793;DHT22;20105;48.764;9.178;2022-11-14T07:32:30;5.90;99.90
33793;DHT22;20105;48.764;9.178;2022-11-14T07:34:55;5.90;99.90
33793;DHT22;20105;48.764;9.178;2022-11-14T07:37:21;5.90;99.90
33793;DHT22;20105;48.764;9.178;2022-11-14T07:39:46;6.00;99.90
33793;DHT22;20105;48.764;9.178;2022-11-14T07:42:12;5.90;99.90
33793;DHT22;20105;48.764;9.178;2022-11-14T07:44:38;5.90;99.90
33793;DHT22;20105;48.764;9.178;2022-11-14T07:47:03;5.80;99.90
33793;DHT22;20105;48.764;9.178;2022-11-14T07:49:29;5.80;99.90
33793;DHT22;20105;48.764;9.178;2022-11-14T07:51:54;5.80;99.90
33793;DHT22;20105;48.764;9.178;2022-11-14T07:54:20;5.80;99.90
33793;DHT22;20105;48.764;9.178;2022-11-14T07:56:45;5.90;99.90
33793;DHT22;20105;48.764;9.178;2022-11-14T07:59:11;6.00;99.90
33793;DHT22;20105;48.764;9.178;2022-11-14T08:01:36;6.10;99.90
33793;DHT22;20105;48.764;9.178;2022-11-14T08:04:02;6.10;99.90
33793;DHT22;20105;48.764;9.178;2022-11-14T08:06:27;6.30;99.90
33793;DHT22;20105;48.764;9.178;2022-11-14T08:08:53;6.30;99.90
33793;DHT22;20105;48.764;9.178;2022-11-14T08:11:19;6.40;99.90
33793;DHT22;20105;48.764;9.178;2022-11-14T08:14:07;6.50;99.90
33793;DHT22;20105;48.764;9.178;2022-11-14T08:16:33;6.50;99.90
33793;DHT22;20105;48.764;9.178;2022-11-14T08:18:59;6.60;99.90
33793;DHT22;20105;48.764;9.178;2022-11-14T08:21:25;6.60;99.90
33793;DHT22;20105;48.764;9.178;2022-11-14T08:23:50;6.80;99.90
33793;DHT22;20105;48.764;9.178;2022-11-14T08:28:42;7.20;99.90
33793;DHT22;20105;48.764;9.178;2022-11-14T08:31:07;7.10;99.90
33793;DHT22;20105;48.764;9.178;2022-11-14T08:33:34;7.10;99.90
33793;DHT22;20105;48.764;9.178;2022-11-14T08:36:04;7.10;99.90
33793;DHT22;20105;48.764;9.178;2022-11-14T08:40:57;7.10;99.90
33793;DHT22;20105;48.764;9.178;2022-11-14T08:43:23;7.10;99.90
33793;DHT22;20105;48.764;9.178;2022-11-14T08:45:49;7.10;99.90
33793;DHT22;20105;48.764;9.178;2022-11-14T08:48:15;7.10;99.90
33793;DHT22;20105;48.764;9.178;2022-11-14T08:50:40;7.10;99.90
33793;DHT22;20105;48.764;9.178;2022-11-14T08:55:32;7.40;99.90
33793;DHT22;20105;48.764;9.178;2022-11-14T08:57:57;7.40;99.90
33793;DHT22;20105;48.764;9.178;2022-11-14T09:00:23;7.50;99.90
33793;DHT22;20105;48.764;9.178;2022-11-14T09:02:48;7.70;99.90
33793;DHT22;20105;48.764;9.178;2022-11-14T09:05:14;7.90;99.90
33793;DHT22;20105;48.764;9.178;2022-11-14T09:07:40;8.00;99.90
33793;DHT22;20105;48.764;9.178;2022-11-14T09:10:06;8.10;99.90
33793;DHT22;20105;48.764;9.178;2022-11-14T09:12:32;8.20;99.90
33793;DHT22;20105;48.764;9.178;2022-11-14T09:14:57;8.20;99.90
33793;DHT22;20105;48.764;9.178;2022-11-14T09:17:23;8.20;99.90
33793;DHT22;20105;48.764;9.178;2022-11-14T09:19:49;8.20;99.90
33793;DHT22;20105;48.764;9.178;2022-11-14T09:22:14;8.10;99.90
33793;DHT22;20105;48.764;9.178;2022-11-14T09:24:40;8.10;99.90
33793;DHT22;20105;48.764;9.178;2022-11-14T09:27:06;8.20;99.90
33793;DHT22;20105;48.764;9.178;2022-11-14T09:29:31;8.40;99.90
33793;DHT22;20105;48.764;9.178;2022-11-14T09:31:57;8.40;99.90
33793;DHT22;20105;48.764;9.178;2022-11-14T09:34:23;8.40;99.90
33793;DHT22;20105;48.764;9.178;2022-11-14T09:36:49;8.50;99.90
33793;DHT22;20105;48.764;9.178;2022-11-14T09:39:14;8.60;99.90
33793;DHT22;20105;48.764;9.178;2022-11-14T09:44:39;8.70;99.90
33793;DHT22;20105;48.764;9.178;2022-11-14T09:47:10;8.80;99.90
33793;DHT22;20105;48.764;9.178;2022-11-14T09:49:40;8.90;99.90
33793;DHT22;20105;48.764;9.178;2022-11-14T09:52:55;8.80;99.90
33793;DHT22;20105;48.764;9.178;2022-11-14T09:55:19;8.90;99.90
33793;DHT22;20105;48.764;9.178;2022-11-14T09:57:46;9.00;99.90
33793;DHT22;20105;48.764;9.178;2022-11-14T10:16:28;9.40;99.90
33793;DHT22;20105;48.764;9.178;2022-11-14T10:27:19;9.90;99.90
33793;DHT22;20105;48.764;9.178;2022-11-14T10:30:03;9.90;99.90
33793;DHT22;20105;48.764;9.178;2022-11-14T10:35:16;9.80;99.90
33793;DHT22;20105;48.764;9.178;2022-11-14T10:38:12;9.80;99.90
33793;DHT22;20105;48.764;9.178;2022-11-14T10:40:41;9.90;99.90
33793;DHT22;20105;48.764;9.178;2022-11-14T10:43:25;10.00;99.90
33793;DHT22;20105;48.764;9.178;2022-11-14T10:46:25;10.00;99.90
33793;DHT22;20105;48.764;9.178;2022-11-14T10:48:51;10.10;99.90
33793;DHT22;20105;48.764;9.178;2022-11-14T10:56:44;10.30;99.90
33793;DHT22;20105;48.764;9.178;2022-11-14T10:59:10;10.50;99.90
33793;DHT22;20105;48.764;9.178;2022-11-14T11:01:41;10.50;99.90
33793;DHT22;20105;48.764;9.178;2022-11-14T11:04:16;10.50;99.90
33793;DHT22;20105;48.764;9.178;2022-11-14T11:06:42;10.40;99.90
33793;DHT22;20105;48.764;9.178;2022-11-14T11:09:13;10.50;99.90
33793;DHT22;20105;48.764;9.178;2022-11-14T11:11:59;10.50;99.90
33793;DHT22;20105;48.764;9.178;2022-11-14T11:14:26;10.70;99.90
33793;DHT22;20105;48.764;9.178;2022-11-14T11:19:38;10.80;99.90
33793;DHT22;20105;48.764;9.178;2022-11-14T11:22:04;10.90;99.90
33793;DHT22;20105;48.764;9.178;2022-11-14T11:24:47;11.10;99.90
33793;DHT22;20105;48.764;9.178;2022-11-14T11:29:45;11.50;99.90
33793;DHT22;20105;48.764;9.178;2022-11-14T11:32:23;11.60;99.90
33793;DHT22;20105;48.764;9.178;2022-11-14T11:34:50;11.60;99.90
33793;DHT22;20105;48.764;9.178;2022-11-14T11:37:23;11.50;99.90
33793;DHT22;20105;48.764;9.178;2022-11-14T11:39:55;11.40;99.90
33793;DHT22;20105;48.764;9.178;2022-11-14T11:45:00;11.50;99.90
33793;DHT22;20105;48.764;9.178;2022-11-14T11:47:29;11.50;99.90
33793;DHT22;20105;48.764;9.178;2022-11-14T11:49:59;11.40;99.90
33793;DHT22;20105;48.764;9.178;2022-11-14T11:52:31;11.30;99.90
33793;DHT22;20105;48.764;9.178;2022-11-14T11:55:16;11.20;99.90
33793;DHT22;20105;48.764;9.178;2022-11-14T11:57:50;11.30;99.90
33793;DHT22;20105;48.764;9.178;2022-11-14T12:00:21;11.30;99.90
33793;DHT22;20105;48.764;9.178;2022-11-14T12:02:49;11.20;99.90
33793;DHT22;20105;48.764;9.178;2022-11-14T12:05:37;11.10;99.90
33793;DHT22;20105;48.764;9.178;2022-11-14T12:08:14;11.20;99.90
33793;DHT22;20105;48.764;9.178;2022-11-14T12:10:44;11.20;99.90
33793;DHT22;20105;48.764;9.178;2022-11-14T12:13:30;11.10;99.90
33793;DHT22;20105;48.764;9.178;2022-11-14T12:19:21;11.00;99.90
33793;DHT22;20105;48.764;9.178;2022-11-14T12:22:03;11.10;99.90
33793;DHT22;20105;48.764;9.178;2022-11-14T12:30:47;11.50;99.90
33793;DHT22;20105;48.764;9.178;2022-11-14T12:33:23;11.70;99.90
33793;DHT22;20105;48.764;9.178;2022-11-14T12:36:10;11.80;99.90
33793;DHT22;20105;48.764;9.178;2022-11-14T12:38:43;12.00;99.90
33793;DHT22;20105;48.764;9.178;2022-11-14T12:41:10;12.30;99.90
33793;DHT22;20105;48.764;9.178;2022-11-14T12:46:06;12.60;99.90
33793;DHT22;20105;48.764;9.178;2022-11-14T12:48:45;12.50;99.90
33793;DHT22;20105;48.764;9.178;2022-11-14T12:53:55;12.60;99.90
33793;DHT22;20105;48.764;9.178;2022-11-14T13:10:30;13.40;99.90
33793;DHT22;20105;48.764;9.178;2022-11-14T13:13:10;13.50;99.90
33793;DHT22;20105;48.764;9.178;2022-11-14T13:15:57;13.60;99.90
33793;DHT22;20105;48.764;9.178;2022-11-14T13:21:38;13.40;99.90
33793;DHT22;20105;48.764;9.178;2022-11-14T13:24:23;13.20;99.90
33793;DHT22;20105;48.764;9.178;2022-11-14T13:26:51;13.00;99.90
33793;DHT22;20105;48.764;9.178;2022-11-14T13:32:09;12.90;99.90
33793;DHT22;20105;48.764;9.178;2022-11-14T13:37:17;12.80;99.90
33793;DHT22;20105;48.764;9.178;2022-11-14T13:50:59;13.20;99.90
33793;DHT22;20105;48.764;9.178;2022-11-14T13:53:28;13.30;99.90
33793;DHT22;20105;48.764;9.178;2022-11-14T13:56:12;13.50;99.90
33793;DHT22;20105;48.764;9.178;2022-11-14T13:59:10;13.60;99.90
33793;DHT22;20105;48.764;9.178;2022-11-14T14:15:48;13.50;99.90
33793;DHT22;20105;48.764;9.178;2022-11-14T14:24:15;13.30;99.90
33793;DHT22;20105;48.764;9.178;2022-11-14T14:27:00;13.30;99.90
33793;DHT22;20105;48.764;9.178;2022-11-14T14:32:23;13.20;99.90
33793;DHT22;20105;48.764;9.178;2022-11-14T14:34:49;13.20;99.90
33793;DHT22;20105;48.764;9.178;2022-11-14T14:37:20;13.20;99.90
33793;DHT22;20105;48.764;9.178;2022-11-14T14:40:05;13.20;99.90
33793;DHT22;20105;48.764;9.178;2022-11-14T14:42:38;13.00;99.90
33793;DHT22;20105;48.764;9.178;2022-11-14T14:45:14;13.00;99.90
33793;DHT22;20105;48.764;9.178;2022-11-14T14:47:42;13.00;99.90
33793;DHT22;20105;48.764;9.178;2022-11-14T14:50:22;13.10;99.90
33793;DHT22;20105;48.764;9.178;2022-11-14T14:52:57;13.10;99.90
33793;DHT22;20105;48.764;9.178;2022-11-14T14:55:28;13.00;99.90
33793;DHT22;20105;48.764;9.178;2022-11-14T14:57:54;12.80;99.90
33793;DHT22;20105;48.764;9.178;2022-11-14T15:00:21;12.90;99.90
33793;DHT22;20105;48.764;9.178;2022-11-14T15:02:53;12.80;99.90
33793;DHT22;20105;48.764;9.178;2022-11-14T15:05:27;12.70;99.90
33793;DHT22;20105;48.764;9.178;2022-11-14T15:07:56;12.70;99.90
33793;DHT22;20105;48.764;9.178;2022-11-14T15:10:25;12.70;99.90
33793;DHT22;20105;48.764;9.178;2022-11-14T15:12:54;12.70;99.90
33793;DHT22;20105;48.764;9.178;2022-11-14T15:15:21;12.70;99.90
33793;DHT22;20105;48.764;9.178;2022-11-14T15:17:50;12.70;99.90
33793;DHT22;20105;48.764;9.178;2022-11-14T15:20:27;12.50;99.90
33793;DHT22;20105;48.764;9.178;2022-11-14T15:25:35;12.40;99.90
33793;DHT22;20105;48.764;9.178;2022-11-14T15:28:01;12.40;99.90
33793;DHT22;20105;48.764;9.178;2022-11-14T15:30:32;12.30;99.90
33793;DHT22;20105;48.764;9.178;2022-11-14T15:33:03;12.20;99.90
33793;DHT22;20105;48.764;9.178;2022-11-14T15:35:31;12.20;99.90
33793;DHT22;20105;48.764;9.178;2022-11-14T15:38:06;12.20;99.90
33793;DHT22;20105;48.764;9.178;2022-11-14T15:40:42;12.10;99.90
33793;DHT22;20105;48.764;9.178;2022-11-14T15:46:37;12.10;99.90
33793;DHT22;20105;48.764;9.178;2022-11-14T15:49:08;12.00;99.90
33793;DHT22;20105;48.764;9.178;2022-11-14T15:51:50;11.80;99.90
33793;DHT22;20105;48.764;9.178;2022-11-14T15:56:56;11.70;99.90
33793;DHT22;20105;48.764;9.178;2022-11-14T15:59:21;11.70;99.90
33793;DHT22;20105;48.764;9.178;2022-11-14T16:01:58;11.60;99.90
33793;DHT22;20105;48.764;9.178;2022-11-14T16:04:33;11.60;99.90
33793;DHT22;20105;48.764;9.178;2022-11-14T16:07:00;11.50;99.90
33793;DHT22;20105;48.764;9.178;2022-11-14T16:09:25;11.50;99.90
33793;DHT22;20105;48.764;9.178;2022-11-14T16:11:51;11.40;99.90
33793;DHT22;20105;48.764;9.178;2022-11-14T16:14:16;11.50;99.90
33793;DHT22;20105;48.764;9.178;2022-11-14T16:16:42;11.60;99.90
33793;DHT22;20105;48.764;9.178;2022-11-14T16:19:11;11.50;99.90
33793;DHT22;20105;48.764;9.178;2022-11-14T16:21:38;11.60;99.90
33793;DHT22;20105;48.764;9.178;2022-11-14T16:24:05;11.60;99.90
33793;DHT22;20105;48.764;9.178;2022-11-14T16:26:30;11.50;99.90
33793;DHT22;20105;48.764;9.178;2022-11-14T16:28:56;11.60;99.90
33793;DHT22;20105;48.764;9.178;2022-11-14T16:31:22;11.60;99.90
33793;DHT22;20105;48.764;9.178;2022-11-14T16:33:47;11.60;99.90
33793;DHT22;20105;48.764;9.178;2022-11-14T16:36:13;11.50;99.90
33793;DHT22;20105;48.764;9.178;2022-11-14T16:38:38;11.50;99.90
33793;DHT22;20105;48.764;9.178;2022-11-14T16:41:08;11.40;99.90
33793;DHT22;20105;48.764;9.178;2022-11-14T16:43:34;11.40;99.90
33793;DHT22;20105;48.764;9.178;2022-11-14T16:46:04;11.40;99.90
33793;DHT22;20105;48.764;9.178;2022-11-14T16:48:30;11.40;99.90
33793;DHT22;20105;48.764;9.178;2022-11-14T16:50:59;11.40;99.90
33793;DHT22;20105;48.764;9.178;2022-11-14T16:53:26;11.50;99.90
33793;DHT22;20105;48.764;9.178;2022-11-14T16:55:51;11.50;99.90
33793;DHT22;20105;48.764;9.178;2022-11-14T16:58:17;11.40;99.90
33793;DHT22;20105;48.764;9.178;2022-11-14T17:00:43;11.40;99.90
33793;DHT22;20105;48.764;9.178;2022-11-14T17:03:08;11.40;99.90
33793;DHT22;20105;48.764;9.178;2022-11-14T17:05:44;11.40;99.90
33793;DHT22;20105;48.764;9.178;2022-11-14T17:08:10;11.40;99.90
33793;DHT22;20105;48.764;9.178;2022-11-14T17:10:45;11.30;99.90
33793;DHT22;20105;48.764;9.178;2022-11-14T17:13:12;11.30;99.90
33793;DHT22;20105;48.764;9.178;2022-11-14T17:15:38;11.40;99.90
33793;DHT22;20105;48.764;9.178;2022-11-14T17:18:04;11.30;99.90
33793;DHT22;20105;48.764;9.178;2022-11-14T17:20:30;11.30;99.90
33793;DHT22;20105;48.764;9.178;2022-11-14T17:22:56;11.30;99.90
33793;DHT22;20105;48.764;9.178;2022-11-14T17:25:23;11.30;99.90
33793;DHT22;20105;48.764;9.178;2022-11-14T17:27:49;11.30;99.90
33793;DHT22;20105;48.764;9.178;2022-11-14T17:30:16;11.30;99.90
33793;DHT22;20105;48.764;9.178;2022-11-14T17:32:42;11.30;99.90
33793;DHT22;20105;48.764;9.178;2022-11-14T17:35:08;11.30;99.90
33793;DHT22;20105;48.764;9.178;2022-11-14T17:37:34;11.30;99.90
33793;DHT22;20105;48.764;9.178;2022-11-14T17:39:59;11.30;99.90
33793;DHT22;20105;48.764;9.178;2022-11-14T17:42:25;11.30;99.90
33793;DHT22;20105;48.764;9.178;2022-11-14T17:44:51;11.40;99.90
33793;DHT22;20105;48.764;9.178;2022-11-14T17:47:17;11.40;99.90
33793;DHT22;20105;48.764;9.178;2022-11-14T17:49:43;11.50;99.90
33793;DHT22;20105;48.764;9.178;2022-11-14T17:52:08;11.40;99.90
33793;DHT22;20105;48.764;9.178;2022-11-14T17:54:34;11.50;99.90
33793;DHT22;20105;48.764;9.178;2022-11-14T17:57:03;11.50;99.90
33793;DHT22;20105;48.764;9.178;2022-11-14T17:59:28;11.50;99.90
33793;DHT22;20105;48.764;9.178;2022-11-14T18:01:54;11.30;99.90